sensor_id;sensor_type;location;lat;lon;timestamp;P1;durP1;ratioP1;P2;durP2;ratioP2
75496;SDS011;64074;47.540;19.072;2023-09-30T00:02:31;14.73;;;9.98;;
75496;SDS011;64074;47.540;19.072;2023-09-30T00:05:45;17.85;;;10.25;;
75496;SDS011;64074;47.540;19.072;2023-09-30T00:08:55;16.05;;;10.30;;
75496;SDS011;64074;47.540;19.072;2023-09-30T00:12:26;16.37;;;10.20;;
75496;SDS011;64074;47.540;19.072;2023-09-30T00:16:01;14.43;;;9.57;;
75496;SDS011;64074;47.540;19.072;2023-09-30T00:19:06;13.98;;;9.70;;
75496;SDS011;64074;47.540;19.072;2023-09-30T00:22:14;15.10;;;10.52;;
75496;SDS011;64074;47.540;19.072;2023-09-30T00:25:22;15.65;;;11.20;;
75496;SDS011;64074;47.540;19.072;2023-09-30T00:28:34;14.77;;;10.43;;
75496;SDS011;64074;47.540;19.072;2023-09-30T00:31:44;15.70;;;9.93;;
75496;SDS011;64074;47.540;19.072;2023-09-30T00:35:06;17.13;;;10.73;;
75496;SDS011;64074;47.540;19.072;2023-09-30T00:38:21;15.13;;;9.30;;
75496;SDS011;64074;47.540;19.072;2023-09-30T00:41:40;15.85;;;10.00;;
75496;SDS011;64074;47.540;19.072;2023-09-30T00:44:49;13.30;;;9.90;;
75496;SDS011;64074;47.540;19.072;2023-09-30T00:47:59;17.00;;;9.93;;
75496;SDS011;64074;47.540;19.072;2023-09-30T00:51:17;16.73;;;10.32;;
75496;SDS011;64074;47.540;19.072;2023-09-30T00:54:23;17.00;;;10.23;;
75496;SDS011;64074;47.540;19.072;2023-09-30T00:57:30;19.33;;;11.15;;
75496;SDS011;64074;47.540;19.072;2023-09-30T01:00:41;15.90;;;10.37;;
75496;SDS011;64074;47.540;19.072;2023-09-30T01:03:51;17.20;;;10.70;;
75496;SDS011;64074;47.540;19.072;2023-09-30T01:07:01;18.88;;;10.65;;
75496;SDS011;64074;47.540;19.072;2023-09-30T01:10:10;15.50;;;11.15;;
75496;SDS011;64074;47.540;19.072;2023-09-30T01:13:22;14.10;;;10.25;;
75496;SDS011;64074;47.540;19.072;2023-09-30T01:16:32;18.37;;;11.00;;
75496;SDS011;64074;47.540;19.072;2023-09-30T01:19:43;14.80;;;10.33;;
75496;SDS011;64074;47.540;19.072;2023-09-30T01:22:57;16.85;;;11.10;;
75496;SDS011;64074;47.540;19.072;2023-09-30T01:26:10;14.13;;;10.30;;
75496;SDS011;64074;47.540;19.072;2023-09-30T01:29:16;15.70;;;10.07;;
75496;SDS011;64074;47.540;19.072;2023-09-30T01:32:21;15.47;;;9.80;;
75496;SDS011;64074;47.540;19.072;2023-09-30T01:35:32;20.30;;;10.43;;
75496;SDS011;64074;47.540;19.072;2023-09-30T01:38:43;14.07;;;10.25;;
75496;SDS011;64074;47.540;19.072;2023-09-30T01:41:56;15.10;;;10.40;;
75496;SDS011;64074;47.540;19.072;2023-09-30T01:45:08;14.00;;;10.20;;
75496;SDS011;64074;47.540;19.072;2023-09-30T01:48:21;20.27;;;10.43;;
75496;SDS011;64074;47.540;19.072;2023-09-30T01:51:28;19.60;;;10.60;;
75496;SDS011;64074;47.540;19.072;2023-09-30T01:54:35;16.58;;;9.82;;
75496;SDS011;64074;47.540;19.072;2023-09-30T01:57:46;15.65;;;9.77;;
75496;SDS011;64074;47.540;19.072;2023-09-30T02:01:03;13.68;;;10.10;;
75496;SDS011;64074;47.540;19.072;2023-09-30T02:04:14;14.27;;;9.37;;
75496;SDS011;64074;47.540;19.072;2023-09-30T02:07:43;17.13;;;9.90;;
75496;SDS011;64074;47.540;19.072;2023-09-30T02:11:10;16.05;;;9.60;;
75496;SDS011;64074;47.540;19.072;2023-09-30T02:14:26;13.65;;;9.40;;
75496;SDS011;64074;47.540;19.072;2023-09-30T02:17:31;13.88;;;9.63;;
75496;SDS011;64074;47.540;19.072;2023-09-30T02:20:42;12.57;;;9.17;;
75496;SDS011;64074;47.540;19.072;2023-09-30T02:23:48;15.27;;;9.50;;
75496;SDS011;64074;47.540;19.072;2023-09-30T02:26:55;16.83;;;9.98;;
75496;SDS011;64074;47.540;19.072;2023-09-30T02:30:05;14.63;;;10.27;;
75496;SDS011;64074;47.540;19.072;2023-09-30T02:33:45;17.33;;;10.40;;
75496;SDS011;64074;47.540;19.072;2023-09-30T02:37:17;16.97;;;10.30;;
75496;SDS011;64074;47.540;19.072;2023-09-30T02:40:33;14.47;;;9.67;;
75496;SDS011;64074;47.540;19.072;2023-09-30T02:43:53;16.17;;;10.10;;
75496;SDS011;64074;47.540;19.072;2023-09-30T02:47:04;16.10;;;9.82;;
75496;SDS011;64074;47.540;19.072;2023-09-30T02:50:22;15.85;;;10.27;;
75496;SDS011;64074;47.540;19.072;2023-09-30T02:53:32;16.33;;;10.33;;
75496;SDS011;64074;47.540;19.072;2023-09-30T02:57:12;16.27;;;10.50;;
75496;SDS011;64074;47.540;19.072;2023-09-30T03:00:29;14.95;;;10.68;;
75496;SDS011;64074;47.540;19.072;2023-09-30T03:03:38;16.35;;;10.40;;
75496;SDS011;64074;47.540;19.072;2023-09-30T03:06:46;17.67;;;10.10;;
75496;SDS011;64074;47.540;19.072;2023-09-30T03:09:55;15.67;;;9.70;;
75496;SDS011;64074;47.540;19.072;2023-09-30T03:13:05;14.63;;;10.57;;
75496;SDS011;64074;47.540;19.072;2023-09-30T03:16:13;17.88;;;10.77;;
75496;SDS011;64074;47.540;19.072;2023-09-30T03:19:27;16.35;;;10.60;;
75496;SDS011;64074;47.540;19.072;2023-09-30T03:22:39;13.93;;;10.07;;
75496;SDS011;64074;47.540;19.072;2023-09-30T03:25:55;18.83;;;10.73;;
75496;SDS011;64074;47.540;19.072;2023-09-30T03:29:14;16.40;;;11.03;;
75496;SDS011;64074;47.540;19.072;2023-09-30T03:32:33;15.82;;;10.38;;
75496;SDS011;64074;47.540;19.072;2023-09-30T03:35:55;16.00;;;10.85;;
75496;SDS011;64074;47.540;19.072;2023-09-30T03:39:18;17.27;;;11.23;;
75496;SDS011;64074;47.540;19.072;2023-09-30T03:42:47;17.97;;;10.87;;
75496;SDS011;64074;47.540;19.072;2023-09-30T03:46:01;15.57;;;10.17;;
75496;SDS011;64074;47.540;19.072;2023-09-30T03:49:21;16.55;;;10.15;;
75496;SDS011;64074;47.540;19.072;2023-09-30T03:52:40;18.65;;;10.63;;
75496;SDS011;64074;47.540;19.072;2023-09-30T03:56:04;18.80;;;10.73;;
75496;SDS011;64074;47.540;19.072;2023-09-30T03:59:23;16.50;;;10.63;;
75496;SDS011;64074;47.540;19.072;2023-09-30T04:02:33;15.63;;;10.80;;
75496;SDS011;64074;47.540;19.072;2023-09-30T04:06:02;17.38;;;10.77;;
75496;SDS011;64074;47.540;19.072;2023-09-30T04:09:31;16.13;;;10.77;;
75496;SDS011;64074;47.540;19.072;2023-09-30T04:12:54;19.40;;;11.18;;
75496;SDS011;64074;47.540;19.072;2023-09-30T04:16:12;18.07;;;11.07;;
75496;SDS011;64074;47.540;19.072;2023-09-30T04:19:24;18.90;;;11.57;;
75496;SDS011;64074;47.540;19.072;2023-09-30T04:22:42;20.23;;;11.93;;
75496;SDS011;64074;47.540;19.072;2023-09-30T04:25:56;19.08;;;11.70;;
75496;SDS011;64074;47.540;19.072;2023-09-30T04:28:59;18.13;;;13.07;;
75496;SDS011;64074;47.540;19.072;2023-09-30T04:32:11;19.43;;;11.87;;
75496;SDS011;64074;47.540;19.072;2023-09-30T04:35:33;19.93;;;12.20;;
75496;SDS011;64074;47.540;19.072;2023-09-30T04:38:52;16.58;;;12.07;;
75496;SDS011;64074;47.540;19.072;2023-09-30T04:41:56;17.80;;;12.00;;
75496;SDS011;64074;47.540;19.072;2023-09-30T04:45:04;20.88;;;12.07;;
75496;SDS011;64074;47.540;19.072;2023-09-30T04:48:13;18.10;;;11.70;;
75496;SDS011;64074;47.540;19.072;2023-09-30T04:51:24;22.03;;;12.20;;
75496;SDS011;64074;47.540;19.072;2023-09-30T04:54:43;17.17;;;12.13;;
75496;SDS011;64074;47.540;19.072;2023-09-30T04:58:10;17.02;;;11.90;;
75496;SDS011;64074;47.540;19.072;2023-09-30T05:01:54;17.80;;;12.05;;
75496;SDS011;64074;47.540;19.072;2023-09-30T05:05:04;18.37;;;12.00;;
75496;SDS011;64074;47.540;19.072;2023-09-30T05:08:24;21.83;;;11.40;;
75496;SDS011;64074;47.540;19.072;2023-09-30T05:11:35;21.80;;;11.90;;
75496;SDS011;64074;47.540;19.072;2023-09-30T05:15:09;22.73;;;13.00;;
75496;SDS011;64074;47.540;19.072;2023-09-30T05:18:38;17.42;;;11.80;;
75496;SDS011;64074;47.540;19.072;2023-09-30T05:22:00;17.10;;;11.60;;
75496;SDS011;64074;47.540;19.072;2023-09-30T05:25:15;18.90;;;12.20;;
75496;SDS011;64074;47.540;19.072;2023-09-30T05:28:42;21.10;;;11.75;;
75496;SDS011;64074;47.540;19.072;2023-09-30T05:31:58;20.48;;;11.57;;
75496;SDS011;64074;47.540;19.072;2023-09-30T05:35:02;18.08;;;12.18;;
75496;SDS011;64074;47.540;19.072;2023-09-30T05:38:09;22.77;;;12.07;;
75496;SDS011;64074;47.540;19.072;2023-09-30T05:41:21;16.43;;;10.97;;
75496;SDS011;64074;47.540;19.072;2023-09-30T05:44:38;18.52;;;12.50;;
75496;SDS011;64074;47.540;19.072;2023-09-30T05:47:56;20.83;;;11.63;;
75496;SDS011;64074;47.540;19.072;2023-09-30T05:51:17;18.13;;;11.77;;
75496;SDS011;64074;47.540;19.072;2023-09-30T05:54:42;17.93;;;11.50;;
75496;SDS011;64074;47.540;19.072;2023-09-30T05:57:59;17.87;;;11.63;;
75496;SDS011;64074;47.540;19.072;2023-09-30T06:01:13;19.58;;;11.80;;
75496;SDS011;64074;47.540;19.072;2023-09-30T06:04:19;18.10;;;11.05;;
75496;SDS011;64074;47.540;19.072;2023-09-30T06:07:29;17.52;;;11.88;;
75496;SDS011;64074;47.540;19.072;2023-09-30T06:10:40;43.00;;;14.50;;
75496;SDS011;64074;47.540;19.072;2023-09-30T06:13:55;17.43;;;11.00;;
75496;SDS011;64074;47.540;19.072;2023-09-30T06:17:20;20.38;;;12.00;;
75496;SDS011;64074;47.540;19.072;2023-09-30T06:20:37;20.55;;;11.50;;
75496;SDS011;64074;47.540;19.072;2023-09-30T06:23:57;17.40;;;11.65;;
75496;SDS011;64074;47.540;19.072;2023-09-30T06:27:15;17.30;;;11.47;;
75496;SDS011;64074;47.540;19.072;2023-09-30T06:30:34;17.57;;;10.87;;
75496;SDS011;64074;47.540;19.072;2023-09-30T06:33:58;18.05;;;11.40;;
75496;SDS011;64074;47.540;19.072;2023-09-30T06:37:20;17.02;;;10.25;;
75496;SDS011;64074;47.540;19.072;2023-09-30T06:40:31;15.02;;;9.82;;
75496;SDS011;64074;47.540;19.072;2023-09-30T06:43:51;17.10;;;10.67;;
75496;SDS011;64074;47.540;19.072;2023-09-30T06:47:18;13.97;;;9.23;;
75496;SDS011;64074;47.540;19.072;2023-09-30T06:50:40;19.13;;;11.25;;
75496;SDS011;64074;47.540;19.072;2023-09-30T06:53:58;15.88;;;10.25;;
75496;SDS011;64074;47.540;19.072;2023-09-30T06:57:15;18.38;;;10.40;;
75496;SDS011;64074;47.540;19.072;2023-09-30T07:00:43;24.40;;;13.47;;
75496;SDS011;64074;47.540;19.072;2023-09-30T07:04:11;18.13;;;11.60;;
75496;SDS011;64074;47.540;19.072;2023-09-30T07:07:29;19.00;;;9.70;;
75496;SDS011;64074;47.540;19.072;2023-09-30T07:10:37;18.42;;;10.27;;
75496;SDS011;64074;47.540;19.072;2023-09-30T07:13:42;21.00;;;10.73;;
75496;SDS011;64074;47.540;19.072;2023-09-30T07:16:46;15.27;;;10.03;;
75496;SDS011;64074;47.540;19.072;2023-09-30T07:19:56;15.70;;;10.70;;
75496;SDS011;64074;47.540;19.072;2023-09-30T07:23:16;18.50;;;10.88;;
75496;SDS011;64074;47.540;19.072;2023-09-30T07:26:28;17.35;;;10.95;;
75496;SDS011;64074;47.540;19.072;2023-09-30T07:30:07;17.65;;;10.43;;
75496;SDS011;64074;47.540;19.072;2023-09-30T07:33:28;16.93;;;10.87;;
75496;SDS011;64074;47.540;19.072;2023-09-30T07:36:47;18.27;;;11.17;;
75496;SDS011;64074;47.540;19.072;2023-09-30T07:39:52;20.50;;;11.02;;
75496;SDS011;64074;47.540;19.072;2023-09-30T07:43:10;17.55;;;11.15;;
75496;SDS011;64074;47.540;19.072;2023-09-30T07:46:39;23.42;;;11.15;;
75496;SDS011;64074;47.540;19.072;2023-09-30T07:49:45;22.97;;;11.30;;
75496;SDS011;64074;47.540;19.072;2023-09-30T07:52:50;25.50;;;11.60;;
75496;SDS011;64074;47.540;19.072;2023-09-30T07:55:57;36.83;;;12.00;;
75496;SDS011;64074;47.540;19.072;2023-09-30T07:59:01;19.50;;;11.13;;
75496;SDS011;64074;47.540;19.072;2023-09-30T08:02:13;18.98;;;11.57;;
75496;SDS011;64074;47.540;19.072;2023-09-30T08:05:32;17.03;;;10.67;;
75496;SDS011;64074;47.540;19.072;2023-09-30T08:08:37;18.63;;;12.07;;
75496;SDS011;64074;47.540;19.072;2023-09-30T08:11:45;21.73;;;12.60;;
75496;SDS011;64074;47.540;19.072;2023-09-30T08:14:55;21.73;;;12.02;;
75496;SDS011;64074;47.540;19.072;2023-09-30T08:18:06;21.75;;;12.00;;
75496;SDS011;64074;47.540;19.072;2023-09-30T08:21:28;20.90;;;11.70;;
75496;SDS011;64074;47.540;19.072;2023-09-30T08:24:39;23.67;;;12.30;;
75496;SDS011;64074;47.540;19.072;2023-09-30T08:27:57;20.15;;;11.07;;
75496;SDS011;64074;47.540;19.072;2023-09-30T08:31:06;18.30;;;11.90;;
75496;SDS011;64074;47.540;19.072;2023-09-30T08:34:15;20.95;;;11.52;;
75496;SDS011;64074;47.540;19.072;2023-09-30T08:37:35;16.70;;;11.03;;
75496;SDS011;64074;47.540;19.072;2023-09-30T08:41:04;21.43;;;11.03;;
75496;SDS011;64074;47.540;19.072;2023-09-30T08:44:34;17.58;;;11.15;;
75496;SDS011;64074;47.540;19.072;2023-09-30T08:47:52;18.27;;;11.20;;
75496;SDS011;64074;47.540;19.072;2023-09-30T08:51:05;20.95;;;11.68;;
75496;SDS011;64074;47.540;19.072;2023-09-30T08:54:16;22.63;;;11.53;;
75496;SDS011;64074;47.540;19.072;2023-09-30T08:57:53;14.37;;;8.87;;
75496;SDS011;64074;47.540;19.072;2023-09-30T09:01:19;12.00;;;7.63;;
75496;SDS011;64074;47.540;19.072;2023-09-30T09:04:38;12.38;;;7.72;;
75496;SDS011;64074;47.540;19.072;2023-09-30T09:07:56;15.13;;;8.18;;
75496;SDS011;64074;47.540;19.072;2023-09-30T09:11:13;17.17;;;8.00;;
75496;SDS011;64074;47.540;19.072;2023-09-30T09:14:43;17.40;;;7.60;;
75496;SDS011;64074;47.540;19.072;2023-09-30T09:18:02;13.25;;;7.75;;
75496;SDS011;64074;47.540;19.072;2023-09-30T09:21:25;13.27;;;7.07;;
75496;SDS011;64074;47.540;19.072;2023-09-30T09:24:43;11.38;;;7.22;;
75496;SDS011;64074;47.540;19.072;2023-09-30T09:27:53;11.47;;;7.50;;
75496;SDS011;64074;47.540;19.072;2023-09-30T09:31:50;9.27;;;6.87;;
75496;SDS011;64074;47.540;19.072;2023-09-30T09:34:38;12.63;;;6.43;;
75496;SDS011;64074;47.540;19.072;2023-09-30T09:37:43;9.70;;;7.00;;
75496;SDS011;64074;47.540;19.072;2023-09-30T09:41:06;9.95;;;7.38;;
75496;SDS011;64074;47.540;19.072;2023-09-30T09:44:20;11.27;;;6.70;;
75496;SDS011;64074;47.540;19.072;2023-09-30T09:47:35;9.97;;;6.73;;
75496;SDS011;64074;47.540;19.072;2023-09-30T09:50:45;11.07;;;7.50;;
75496;SDS011;64074;47.540;19.072;2023-09-30T09:53:57;15.23;;;7.35;;
75496;SDS011;64074;47.540;19.072;2023-09-30T09:57:18;15.93;;;7.28;;
75496;SDS011;64074;47.540;19.072;2023-09-30T10:00:24;10.57;;;7.17;;
75496;SDS011;64074;47.540;19.072;2023-09-30T10:03:37;13.87;;;7.83;;
75496;SDS011;64074;47.540;19.072;2023-09-30T10:06:54;11.48;;;8.18;;
75496;SDS011;64074;47.540;19.072;2023-09-30T10:10:06;12.52;;;7.75;;
75496;SDS011;64074;47.540;19.072;2023-09-30T10:17:01;14.87;;;8.60;;
75496;SDS011;64074;47.540;19.072;2023-09-30T10:20:26;13.57;;;8.20;;
75496;SDS011;64074;47.540;19.072;2023-09-30T10:23:38;12.23;;;7.85;;
75496;SDS011;64074;47.540;19.072;2023-09-30T10:30:39;15.75;;;8.23;;
75496;SDS011;64074;47.540;19.072;2023-09-30T10:34:38;16.30;;;8.83;;
75496;SDS011;64074;47.540;19.072;2023-09-30T10:37:49;15.87;;;8.30;;
75496;SDS011;64074;47.540;19.072;2023-09-30T10:41:03;16.55;;;8.45;;
75496;SDS011;64074;47.540;19.072;2023-09-30T10:50:53;11.43;;;7.67;;
75496;SDS011;64074;47.540;19.072;2023-09-30T10:54:13;15.73;;;9.00;;
75496;SDS011;64074;47.540;19.072;2023-09-30T10:57:28;16.55;;;9.15;;
75496;SDS011;64074;47.540;19.072;2023-09-30T11:00:39;16.77;;;8.52;;
75496;SDS011;64074;47.540;19.072;2023-09-30T11:04:04;18.10;;;9.30;;
75496;SDS011;64074;47.540;19.072;2023-09-30T11:07:20;14.40;;;8.83;;
75496;SDS011;64074;47.540;19.072;2023-09-30T11:10:35;15.17;;;9.80;;
75496;SDS011;64074;47.540;19.072;2023-09-30T11:13:57;15.20;;;9.15;;
75496;SDS011;64074;47.540;19.072;2023-09-30T11:17:10;15.07;;;9.38;;
75496;SDS011;64074;47.540;19.072;2023-09-30T11:20:16;17.77;;;9.77;;
75496;SDS011;64074;47.540;19.072;2023-09-30T11:23:21;16.53;;;9.80;;
75496;SDS011;64074;47.540;19.072;2023-09-30T11:26:34;13.03;;;9.60;;
75496;SDS011;64074;47.540;19.072;2023-09-30T11:29:56;16.38;;;9.65;;
75496;SDS011;64074;47.540;19.072;2023-09-30T11:33:23;17.98;;;10.18;;
75496;SDS011;64074;47.540;19.072;2023-09-30T11:36:36;14.18;;;10.07;;
75496;SDS011;64074;47.540;19.072;2023-09-30T11:40:09;19.40;;;9.93;;
75496;SDS011;64074;47.540;19.072;2023-09-30T11:43:25;19.03;;;10.37;;
75496;SDS011;64074;47.540;19.072;2023-09-30T11:49:58;18.23;;;10.38;;
75496;SDS011;64074;47.540;19.072;2023-09-30T11:53:14;15.95;;;10.75;;
75496;SDS011;64074;47.540;19.072;2023-09-30T11:56:33;18.13;;;10.50;;
75496;SDS011;64074;47.540;19.072;2023-09-30T11:59:37;16.73;;;10.73;;
75496;SDS011;64074;47.540;19.072;2023-09-30T12:02:46;15.98;;;10.57;;
75496;SDS011;64074;47.540;19.072;2023-09-30T12:05:57;19.17;;;11.30;;
75496;SDS011;64074;47.540;19.072;2023-09-30T12:09:10;17.25;;;10.80;;
75496;SDS011;64074;47.540;19.072;2023-09-30T12:12:18;14.73;;;11.37;;
75496;SDS011;64074;47.540;19.072;2023-09-30T12:15:23;17.90;;;10.97;;
75496;SDS011;64074;47.540;19.072;2023-09-30T12:18:33;19.25;;;10.88;;
75496;SDS011;64074;47.540;19.072;2023-09-30T12:21:56;17.38;;;11.05;;
75496;SDS011;64074;47.540;19.072;2023-09-30T12:25:00;17.33;;;10.70;;
75496;SDS011;64074;47.540;19.072;2023-09-30T12:28:11;17.00;;;11.50;;
75496;SDS011;64074;47.540;19.072;2023-09-30T12:31:29;18.17;;;10.90;;
75496;SDS011;64074;47.540;19.072;2023-09-30T12:34:55;17.67;;;11.07;;
75496;SDS011;64074;47.540;19.072;2023-09-30T12:38:06;17.38;;;11.15;;
75496;SDS011;64074;47.540;19.072;2023-09-30T12:41:16;19.02;;;12.30;;
75496;SDS011;64074;47.540;19.072;2023-09-30T12:44:29;14.80;;;10.73;;
75496;SDS011;64074;47.540;19.072;2023-09-30T12:47:44;13.60;;;10.50;;
75496;SDS011;64074;47.540;19.072;2023-09-30T12:50:55;16.85;;;11.10;;
75496;SDS011;64074;47.540;19.072;2023-09-30T12:54:10;15.75;;;10.70;;
75496;SDS011;64074;47.540;19.072;2023-09-30T12:57:16;15.90;;;10.70;;
75496;SDS011;64074;47.540;19.072;2023-09-30T13:00:22;16.63;;;11.13;;
75496;SDS011;64074;47.540;19.072;2023-09-30T13:03:32;18.17;;;10.97;;
75496;SDS011;64074;47.540;19.072;2023-09-30T13:06:42;15.85;;;10.30;;
75496;SDS011;64074;47.540;19.072;2023-09-30T13:10:01;15.77;;;10.93;;
75496;SDS011;64074;47.540;19.072;2023-09-30T13:13:25;18.13;;;11.15;;
75496;SDS011;64074;47.540;19.072;2023-09-30T13:16:44;17.30;;;10.27;;
75496;SDS011;64074;47.540;19.072;2023-09-30T13:20:14;13.47;;;10.33;;
75496;SDS011;64074;47.540;19.072;2023-09-30T13:23:19;16.10;;;9.98;;
75496;SDS011;64074;47.540;19.072;2023-09-30T13:26:23;17.15;;;10.82;;
75496;SDS011;64074;47.540;19.072;2023-09-30T13:29:30;16.42;;;10.43;;
75496;SDS011;64074;47.540;19.072;2023-09-30T13:32:41;14.23;;;10.30;;
75496;SDS011;64074;47.540;19.072;2023-09-30T13:35:57;15.17;;;10.13;;
75496;SDS011;64074;47.540;19.072;2023-09-30T13:39:12;13.00;;;9.57;;
75496;SDS011;64074;47.540;19.072;2023-09-30T13:42:45;14.60;;;9.50;;
75496;SDS011;64074;47.540;19.072;2023-09-30T13:45:55;18.73;;;10.07;;
75496;SDS011;64074;47.540;19.072;2023-09-30T13:49:00;16.70;;;10.30;;
75496;SDS011;64074;47.540;19.072;2023-09-30T13:52:09;23.97;;;9.90;;
75496;SDS011;64074;47.540;19.072;2023-09-30T13:55:24;13.25;;;9.98;;
75496;SDS011;64074;47.540;19.072;2023-09-30T13:58:56;13.73;;;9.85;;
75496;SDS011;64074;47.540;19.072;2023-09-30T14:02:08;14.55;;;10.05;;
75496;SDS011;64074;47.540;19.072;2023-09-30T14:05:30;16.37;;;9.77;;
75496;SDS011;64074;47.540;19.072;2023-09-30T14:08:43;12.77;;;10.30;;
75496;SDS011;64074;47.540;19.072;2023-09-30T14:11:52;14.95;;;9.45;;
75496;SDS011;64074;47.540;19.072;2023-09-30T14:14:56;15.23;;;10.10;;
75496;SDS011;64074;47.540;19.072;2023-09-30T14:18:05;14.73;;;9.50;;
75496;SDS011;64074;47.540;19.072;2023-09-30T14:21:12;16.47;;;10.27;;
75496;SDS011;64074;47.540;19.072;2023-09-30T14:24:18;16.63;;;11.00;;
75496;SDS011;64074;47.540;19.072;2023-09-30T14:27:26;17.10;;;10.82;;
75496;SDS011;64074;47.540;19.072;2023-09-30T14:30:37;15.50;;;9.93;;
75496;SDS011;64074;47.540;19.072;2023-09-30T14:33:51;18.00;;;10.70;;
75496;SDS011;64074;47.540;19.072;2023-09-30T14:36:56;13.93;;;10.33;;
75496;SDS011;64074;47.540;19.072;2023-09-30T14:40:00;17.43;;;10.10;;
75496;SDS011;64074;47.540;19.072;2023-09-30T14:43:17;13.23;;;10.18;;
75496;SDS011;64074;47.540;19.072;2023-09-30T14:46:48;13.68;;;10.38;;
75496;SDS011;64074;47.540;19.072;2023-09-30T14:50:10;14.38;;;9.30;;
75496;SDS011;64074;47.540;19.072;2023-09-30T14:53:33;12.10;;;9.40;;
75496;SDS011;64074;47.540;19.072;2023-09-30T14:56:44;12.40;;;9.47;;
75496;SDS011;64074;47.540;19.072;2023-09-30T14:59:50;16.10;;;9.50;;
75496;SDS011;64074;47.540;19.072;2023-09-30T15:03:00;16.92;;;10.85;;
75496;SDS011;64074;47.540;19.072;2023-09-30T15:06:24;13.20;;;9.75;;
75496;SDS011;64074;47.540;19.072;2023-09-30T15:09:39;17.13;;;9.70;;
75496;SDS011;64074;47.540;19.072;2023-09-30T15:13:06;12.70;;;9.63;;
75496;SDS011;64074;47.540;19.072;2023-09-30T15:16:17;15.90;;;10.13;;
75496;SDS011;64074;47.540;19.072;2023-09-30T15:19:31;13.45;;;9.40;;
75496;SDS011;64074;47.540;19.072;2023-09-30T15:22:36;12.18;;;9.32;;
75496;SDS011;64074;47.540;19.072;2023-09-30T15:25:42;12.77;;;9.27;;
75496;SDS011;64074;47.540;19.072;2023-09-30T15:28:52;13.30;;;8.53;;
75496;SDS011;64074;47.540;19.072;2023-09-30T15:32:14;13.77;;;8.52;;
75496;SDS011;64074;47.540;19.072;2023-09-30T15:35:39;12.65;;;8.55;;
75496;SDS011;64074;47.540;19.072;2023-09-30T15:38:57;11.38;;;8.75;;
75496;SDS011;64074;47.540;19.072;2023-09-30T15:42:20;11.37;;;8.47;;
75496;SDS011;64074;47.540;19.072;2023-09-30T15:45:42;11.80;;;9.13;;
75496;SDS011;64074;47.540;19.072;2023-09-30T15:49:04;13.40;;;9.45;;
75496;SDS011;64074;47.540;19.072;2023-09-30T15:52:24;11.75;;;8.98;;
75496;SDS011;64074;47.540;19.072;2023-09-30T15:55:33;13.48;;;9.43;;
75496;SDS011;64074;47.540;19.072;2023-09-30T15:58:38;15.70;;;9.60;;
75496;SDS011;64074;47.540;19.072;2023-09-30T16:01:44;14.37;;;9.43;;
75496;SDS011;64074;47.540;19.072;2023-09-30T16:04:49;14.75;;;9.70;;
75496;SDS011;64074;47.540;19.072;2023-09-30T16:08:01;13.90;;;9.43;;
75496;SDS011;64074;47.540;19.072;2023-09-30T16:11:14;14.30;;;9.13;;
75496;SDS011;64074;47.540;19.072;2023-09-30T16:14:23;12.23;;;9.03;;
75496;SDS011;64074;47.540;19.072;2023-09-30T16:17:28;12.43;;;9.43;;
75496;SDS011;64074;47.540;19.072;2023-09-30T16:20:38;13.48;;;9.20;;
75496;SDS011;64074;47.540;19.072;2023-09-30T16:24:02;13.95;;;8.52;;
75496;SDS011;64074;47.540;19.072;2023-09-30T16:27:11;12.90;;;8.38;;
75496;SDS011;64074;47.540;19.072;2023-09-30T16:30:20;12.10;;;8.33;;
75496;SDS011;64074;47.540;19.072;2023-09-30T16:33:31;12.07;;;7.97;;
75496;SDS011;64074;47.540;19.072;2023-09-30T16:36:49;10.93;;;8.25;;
75496;SDS011;64074;47.540;19.072;2023-09-30T16:39:59;11.32;;;8.20;;
75496;SDS011;64074;47.540;19.072;2023-09-30T16:43:16;12.40;;;7.57;;
75496;SDS011;64074;47.540;19.072;2023-09-30T16:46:39;9.60;;;6.57;;
75496;SDS011;64074;47.540;19.072;2023-09-30T16:49:49;11.53;;;7.30;;
75496;SDS011;64074;47.540;19.072;2023-09-30T16:53:19;8.77;;;6.80;;
75496;SDS011;64074;47.540;19.072;2023-09-30T16:56:30;9.27;;;6.65;;
75496;SDS011;64074;47.540;19.072;2023-09-30T17:00:07;10.65;;;6.90;;
75496;SDS011;64074;47.540;19.072;2023-09-30T17:03:37;9.03;;;7.00;;
75496;SDS011;64074;47.540;19.072;2023-09-30T17:07:01;9.00;;;7.17;;
75496;SDS011;64074;47.540;19.072;2023-09-30T17:10:23;9.85;;;6.78;;
75496;SDS011;64074;47.540;19.072;2023-09-30T17:13:38;8.40;;;6.55;;
75496;SDS011;64074;47.540;19.072;2023-09-30T17:16:50;11.50;;;6.85;;
75496;SDS011;64074;47.540;19.072;2023-09-30T17:19:54;9.93;;;7.27;;
75496;SDS011;64074;47.540;19.072;2023-09-30T17:22:57;11.27;;;7.80;;
75496;SDS011;64074;47.540;19.072;2023-09-30T17:26:09;11.25;;;7.60;;
75496;SDS011;64074;47.540;19.072;2023-09-30T17:29:17;10.10;;;7.60;;
75496;SDS011;64074;47.540;19.072;2023-09-30T17:32:28;10.93;;;7.90;;
75496;SDS011;64074;47.540;19.072;2023-09-30T17:35:39;11.77;;;8.50;;
75496;SDS011;64074;47.540;19.072;2023-09-30T17:38:50;12.77;;;8.90;;
75496;SDS011;64074;47.540;19.072;2023-09-30T17:42:16;14.05;;;8.35;;
75496;SDS011;64074;47.540;19.072;2023-09-30T17:45:33;12.82;;;8.90;;
75496;SDS011;64074;47.540;19.072;2023-09-30T17:49:05;10.20;;;8.05;;
75496;SDS011;64074;47.540;19.072;2023-09-30T17:52:16;10.43;;;8.30;;
75496;SDS011;64074;47.540;19.072;2023-09-30T17:55:25;10.20;;;7.57;;
75496;SDS011;64074;47.540;19.072;2023-09-30T17:58:30;12.68;;;7.97;;
75496;SDS011;64074;47.540;19.072;2023-09-30T18:01:40;13.55;;;8.20;;
75496;SDS011;64074;47.540;19.072;2023-09-30T18:04:56;9.05;;;7.72;;
75496;SDS011;64074;47.540;19.072;2023-09-30T18:08:20;11.97;;;7.63;;
75496;SDS011;64074;47.540;19.072;2023-09-30T18:11:42;10.03;;;8.10;;
75496;SDS011;64074;47.540;19.072;2023-09-30T18:15:02;9.48;;;7.30;;
75496;SDS011;64074;47.540;19.072;2023-09-30T18:18:13;11.13;;;7.53;;
75496;SDS011;64074;47.540;19.072;2023-09-30T18:21:38;10.73;;;7.50;;
75496;SDS011;64074;47.540;19.072;2023-09-30T18:25:02;10.50;;;7.30;;
75496;SDS011;64074;47.540;19.072;2023-09-30T18:28:17;11.07;;;7.70;;
75496;SDS011;64074;47.540;19.072;2023-09-30T18:31:26;10.63;;;7.93;;
75496;SDS011;64074;47.540;19.072;2023-09-30T18:34:32;12.07;;;7.80;;
75496;SDS011;64074;47.540;19.072;2023-09-30T18:37:43;11.52;;;8.00;;
75496;SDS011;64074;47.540;19.072;2023-09-30T18:40:53;10.63;;;7.57;;
75496;SDS011;64074;47.540;19.072;2023-09-30T18:44:10;11.53;;;7.53;;
75496;SDS011;64074;47.540;19.072;2023-09-30T18:47:21;10.70;;;8.10;;
75496;SDS011;64074;47.540;19.072;2023-09-30T18:50:27;13.32;;;8.60;;
75496;SDS011;64074;47.540;19.072;2023-09-30T18:53:38;11.90;;;8.20;;
75496;SDS011;64074;47.540;19.072;2023-09-30T18:56:52;12.07;;;7.83;;
75496;SDS011;64074;47.540;19.072;2023-09-30T19:00:13;16.00;;;9.00;;
75496;SDS011;64074;47.540;19.072;2023-09-30T19:03:38;11.68;;;8.52;;
75496;SDS011;64074;47.540;19.072;2023-09-30T19:06:46;13.93;;;8.32;;
75496;SDS011;64074;47.540;19.072;2023-09-30T19:09:52;11.90;;;8.60;;
75496;SDS011;64074;47.540;19.072;2023-09-30T19:13:06;10.30;;;8.50;;